Time;durP1;ratioP1;P1;durP2;ratioP2;P2;SDS_P1;SDS_P2;PMS_P1;PMS_P2;Temp;Humidity;BMP_temperature;BMP_pressure;BME280_temperature;BME280_humidity;BME280_pressure;Samples;Min_cycle;Max_cycle;Signal;HPM_P1;HPM_P2
2022/11/17 00:00:18;;;;;;;26.48;17.70;;;9.00;99.90;;;;;;5055470;28;20033;-73
2022/11/17 00:02:45;;;;;;;30.17;17.83;;;9.00;99.90;;;;;;5038866;28;20505;-73
2022/11/17 00:05:11;;;;;;;29.27;17.05;;;9.00;99.90;;;;;;5045280;28;20074;-74
2022/11/17 00:07:36;;;;;;;27.50;17.25;;;9.10;99.90;;;;;;5051990;28;20547;-73
2022/11/17 00:10:02;;;;;;;26.73;16.27;;;9.10;99.90;;;;;;5040499;28;20033;-73
2022/11/17 00:15:23;;;;;;;27.05;16.73;;;9.10;99.90;;;;;;4931889;28;20048;-74
2022/11/17 00:21:17;;;;;;;26.30;16.95;;;9.10;99.90;;;;;;5057028;28;20037;-74
2022/11/17 00:23:24;;;;;;;26.17;16.38;;;9.10;99.90;;;;;;5029826;28;20132;-74
2022/11/17 00:25:50;;;;;;;25.40;17.10;;;9.10;99.90;;;;;;5038351;28;20400;-73
2022/11/17 00:28:16;;;;;;;30.05;16.38;;;9.10;99.90;;;;;;5046091;28;20040;-74
2022/11/17 00:36:13;;;;;;;28.20;16.98;;;9.10;99.90;;;;;;5041283;28;20569;-74
2022/11/17 00:38:39;;;;;;;23.38;16.23;;;9.10;99.90;;;;;;5033462;28;20079;-73
2022/11/17 00:41:04;;;;;;;27.98;16.17;;;9.10;99.90;;;;;;5051118;28;20103;-73
2022/11/17 00:43:30;;;;;;;24.33;16.08;;;9.10;99.90;;;;;;5036545;28;20045;-73
2022/11/17 00:45:55;;;;;;;26.92;15.60;;;9.10;99.90;;;;;;5036665;28;20052;-73
2022/11/17 00:48:21;;;;;;;26.45;15.40;;;9.20;99.90;;;;;;5056728;28;20512;-74
2022/11/17 00:50:46;;;;;;;24.58;15.43;;;9.20;99.90;;;;;;5055745;28;20397;-73
2022/11/17 00:53:12;;;;;;;23.10;15.35;;;9.20;99.90;;;;;;5037248;28;20049;-74
2022/11/17 00:55:38;;;;;;;23.45;14.60;;;9.20;99.90;;;;;;5033446;28;20048;-74
2022/11/17 00:58:03;;;;;;;23.10;14.80;;;9.20;99.90;;;;;;5056158;28;20116;-73
2022/11/17 01:00:29;;;;;;;27.35;15.45;;;9.20;99.90;;;;;;5055288;28;20496;-74
2022/11/17 01:02:54;;;;;;;20.77;14.07;;;9.20;99.90;;;;;;5056508;28;20412;-73
2022/11/17 01:05:20;;;;;;;23.58;15.48;;;9.20;99.90;;;;;;5050669;28;20033;-74
2022/11/17 01:07:46;;;;;;;23.05;14.40;;;9.20;99.90;;;;;;5033697;28;20454;-74
2022/11/17 01:10:12;;;;;;;22.02;14.32;;;9.20;99.90;;;;;;5038698;28;20044;-75
2022/11/17 01:12:37;;;;;;;24.15;13.73;;;9.20;99.90;;;;;;5051111;28;20044;-74
2022/11/17 01:15:03;;;;;;;24.20;14.80;;;9.20;99.90;;;;;;5033459;28;20120;-74
2022/11/17 01:17:28;;;;;;;24.05;14.07;;;9.20;99.90;;;;;;5043610;28;20052;-73
2022/11/17 01:19:54;;;;;;;22.92;13.57;;;9.20;99.90;;;;;;5050555;28;20524;-74
2022/11/17 01:22:19;;;;;;;25.70;14.10;;;9.20;99.90;;;;;;5033069;28;20071;-73
2022/11/17 01:24:45;;;;;;;24.02;13.50;;;9.30;99.90;;;;;;5033123;28;20559;-74
2022/11/17 01:27:11;;;;;;;23.90;13.93;;;9.20;99.90;;;;;;5043696;28;20041;-74
2022/11/17 01:29:36;;;;;;;19.35;12.77;;;9.30;99.90;;;;;;5050042;28;20037;-73
2022/11/17 01:32:02;;;;;;;22.65;13.98;;;9.30;99.90;;;;;;5050325;28;20033;-74
2022/11/17 01:34:27;;;;;;;19.30;13.48;;;9.30;99.90;;;;;;5054519;28;20032;-74
2022/11/17 01:39:37;;;;;;;20.60;13.65;;;9.30;99.90;;;;;;5030817;28;20049;-74
2022/11/17 01:42:12;;;;;;;20.13;12.88;;;9.30;99.90;;;;;;5050942;28;20049;-74
2022/11/17 01:44:47;;;;;;;21.60;13.02;;;9.30;99.90;;;;;;5030042;28;20120;-74
2022/11/17 01:47:38;;;;;;;23.60;12.77;;;9.30;99.90;;;;;;5029378;28;20049;-74
2022/11/17 01:50:19;;;;;;;21.85;13.23;;;9.30;99.90;;;;;;5037368;28;20081;-74
2022/11/17 01:52:47;;;;;;;22.52;13.70;;;9.30;99.90;;;;;;5037060;28;20056;-75
2022/11/17 01:55:13;;;;;;;25.63;12.75;;;9.30;99.90;;;;;;5050250;28;20037;-75
2022/11/17 01:57:49;;;;;;;22.52;14.00;;;9.30;99.90;;;;;;5033278;28;20714;-75
2022/11/17 02:00:15;;;;;;;21.40;13.45;;;9.30;99.90;;;;;;5035460;28;20044;-75
2022/11/17 02:02:42;;;;;;;22.13;12.77;;;9.30;99.90;;;;;;5041853;28;20041;-75
2022/11/17 02:05:44;;;;;;;24.27;14.15;;;9.30;99.90;;;;;;5027149;28;20036;-75
2022/11/17 02:08:11;;;;;;;20.65;12.73;;;9.30;99.90;;;;;;5027703;28;20099;-75
2022/11/17 02:10:37;;;;;;;22.70;14.07;;;9.30;99.90;;;;;;5036958;28;20087;-75
2022/11/17 02:13:04;;;;;;;23.60;14.13;;;9.20;99.90;;;;;;5031824;28;20045;-75
2022/11/17 02:15:29;;;;;;;20.45;13.18;;;9.20;99.90;;;;;;5037102;28;20443;-75
2022/11/17 02:17:57;;;;;;;24.95;13.18;;;9.20;99.90;;;;;;5038185;28;20045;-74
2022/11/17 02:21:03;;;;;;;23.70;14.13;;;9.20;99.90;;;;;;5051916;28;20489;-74
2022/11/17 02:23:47;;;;;;;20.33;12.63;;;9.30;99.90;;;;;;4954185;28;20046;-74
2022/11/17 02:26:35;;;;;;;24.35;13.35;;;9.20;99.90;;;;;;5038670;28;20048;-74
2022/11/17 02:29:11;;;;;;;23.05;13.20;;;9.20;99.90;;;;;;5033643;28;20500;-74
2022/11/17 02:32:08;;;;;;;23.77;13.95;;;9.30;99.90;;;;;;5055296;28;20044;-76
2022/11/17 02:34:57;;;;;;;23.15;14.48;;;9.30;99.90;;;;;;5030669;28;20124;-75
2022/11/17 02:37:49;;;;;;;22.45;13.50;;;9.20;99.90;;;;;;5036695;28;20044;-75
2022/11/17 02:40:25;;;;;;;21.65;12.85;;;9.20;99.90;;;;;;5044877;28;20416;-75
2022/11/17 02:45:55;;;;;;;21.02;12.27;;;9.20;99.90;;;;;;5034774;28;20048;-75
2022/11/17 02:48:59;;;;;;;20.75;12.77;;;9.20;99.90;;;;;;5031156;28;20079;-75
2022/11/17 02:51:24;;;;;;;19.92;12.40;;;9.20;99.90;;;;;;4997867;28;20057;-75
2022/11/17 02:53:54;;;;;;;20.02;12.60;;;9.20;99.90;;;;;;5032952;28;20043;-75
2022/11/17 02:56:20;;;;;;;22.35;13.38;;;9.20;99.90;;;;;;5036228;28;20125;-75
2022/11/17 02:58:50;;;;;;;22.83;12.55;;;9.20;99.90;;;;;;5046552;28;20124;-75
2022/11/17 03:01:38;;;;;;;22.75;12.95;;;9.10;99.90;;;;;;5036327;28;20408;-75
2022/11/17 03:04:24;;;;;;;23.05;12.88;;;9.20;99.90;;;;;;5034989;28;20122;-75
2022/11/17 03:07:29;;;;;;;20.02;13.02;;;9.20;99.90;;;;;;5053527;28;20051;-75
2022/11/17 03:10:15;;;;;;;19.83;12.65;;;9.20;99.90;;;;;;5053760;28;20041;-75
2022/11/17 03:12:54;;;;;;;22.83;13.45;;;9.20;99.90;;;;;;5040859;28;20053;-75
2022/11/17 03:15:41;;;;;;;18.25;12.07;;;9.20;99.90;;;;;;5045258;28;20416;-75
2022/11/17 03:18:16;;;;;;;24.05;12.35;;;9.20;99.90;;;;;;5061362;28;20060;-75
2022/11/17 03:20:55;;;;;;;20.05;12.55;;;9.20;99.90;;;;;;5033865;28;20037;-74
2022/11/17 03:23:35;;;;;;;21.48;13.30;;;9.20;99.90;;;;;;5051759;28;20045;-75
2022/11/17 03:26:03;;;;;;;18.23;11.82;;;9.20;99.90;;;;;;5035544;28;20076;-75
2022/11/17 03:28:30;;;;;;;20.45;11.35;;;9.20;99.90;;;;;;5034790;28;20041;-75
2022/11/17 03:30:57;;;;;;;19.67;11.82;;;9.20;99.90;;;;;;5046605;28;20049;-75
2022/11/17 03:33:24;;;;;;;18.48;11.95;;;9.20;99.90;;;;;;5034863;28;20106;-75
2022/11/17 03:36:19;;;;;;;19.45;11.95;;;9.20;99.90;;;;;;5042938;28;20046;-75
2022/11/17 03:39:01;;;;;;;17.83;11.00;;;9.20;99.90;;;;;;5046520;28;20041;-76
2022/11/17 03:41:32;;;;;;;18.92;11.07;;;9.20;99.90;;;;;;5024490;28;20033;-75
2022/11/17 03:44:00;;;;;;;18.77;11.90;;;9.20;99.90;;;;;;5055390;28;20044;-75
2022/11/17 03:46:26;;;;;;;19.45;11.00;;;9.20;99.90;;;;;;5033413;28;20432;-75
2022/11/17 03:51:24;;;;;;;21.60;11.73;;;9.20;99.90;;;;;;5059357;22;20496;-75
2022/11/17 03:53:51;;;;;;;;;;;9.20;99.90;;;;;;5059994;28;20041;-75
2022/11/17 03:56:38;;;;;;;19.33;10.85;;;9.20;99.90;;;;;;5058090;28;20249;-75
2022/11/17 03:59:21;;;;;;;17.42;10.73;;;9.20;99.90;;;;;;5061472;28;20067;-75
2022/11/17 04:01:47;;;;;;;18.00;12.35;;;9.20;99.90;;;;;;5058485;28;20384;-75
2022/11/17 04:04:15;;;;;;;17.65;11.38;;;9.20;99.90;;;;;;5071001;28;20040;-75
2022/11/17 04:06:40;;;;;;;20.23;11.85;;;9.20;99.90;;;;;;5063392;28;20037;-75
2022/11/17 04:09:06;;;;;;;21.20;11.10;;;9.20;99.90;;;;;;5062768;28;20221;-75
2022/11/17 04:16:59;;;;;;;16.60;9.80;;;9.20;99.90;;;;;;5061434;28;20128;-75
2022/11/17 04:19:25;;;;;;;19.67;10.90;;;9.20;99.90;;;;;;5064801;28;20115;-75
2022/11/17 04:21:50;;;;;;;17.25;10.40;;;9.20;99.90;;;;;;5067948;28;20083;-75
2022/11/17 04:24:17;;;;;;;17.05;9.85;;;9.20;99.90;;;;;;5061951;28;20040;-75
2022/11/17 04:29:27;;;;;;;17.73;9.50;;;9.10;99.90;;;;;;5055684;28;20450;-75
2022/11/17 04:31:53;;;;;;;18.35;10.70;;;9.20;99.90;;;;;;5056576;28;20044;-75
2022/11/17 04:34:18;;;;;;;15.40;9.45;;;9.20;99.90;;;;;;5064728;28;20032;-75
2022/11/17 04:36:44;;;;;;;18.33;10.60;;;9.20;99.90;;;;;;5052041;28;20043;-75
2022/11/17 04:39:14;;;;;;;15.65;9.43;;;9.20;99.90;;;;;;5065716;28;20032;-75
2022/11/17 04:41:53;;;;;;;15.38;9.95;;;9.20;99.90;;;;;;5051075;28;20448;-75
2022/11/17 04:44:22;;;;;;;18.83;10.05;;;9.20;99.90;;;;;;5055962;28;20041;-75
2022/11/17 04:46:48;;;;;;;16.08;11.00;;;9.20;99.90;;;;;;5051216;28;20484;-75
2022/11/17 04:49:15;;;;;;;14.27;10.07;;;9.30;99.90;;;;;;5069319;28;20396;-75
2022/11/17 04:51:41;;;;;;;15.55;9.82;;;9.20;99.90;;;;;;5055838;28;20114;-76
2022/11/17 04:54:09;;;;;;;17.25;10.45;;;9.30;99.90;;;;;;5036835;28;20552;-76
2022/11/17 04:56:35;;;;;;;16.50;9.80;;;9.30;99.90;;;;;;5065445;28;20078;-75
2022/11/17 04:59:01;;;;;;;15.45;9.77;;;9.20;99.90;;;;;;5066426;28;20029;-76
2022/11/17 05:01:27;;;;;;;14.95;9.45;;;9.30;99.90;;;;;;5058028;28;20159;-76
2022/11/17 05:03:54;;;;;;;18.27;10.07;;;9.30;99.90;;;;;;5064966;28;20119;-76
2022/11/17 05:06:23;;;;;;;17.20;10.00;;;9.30;99.90;;;;;;5057084;28;20049;-76
2022/11/17 05:08:49;;;;;;;19.27;10.18;;;9.20;99.90;;;;;;5063613;28;20040;-76
2022/11/17 05:14:01;;;;;;;16.13;9.90;;;9.20;99.90;;;;;;5064726;28;20114;-76
2022/11/17 05:19:14;;;;;;;15.88;9.27;;;9.20;99.90;;;;;;5060852;28;20074;-76
2022/11/17 05:21:39;;;;;;;16.40;9.77;;;9.20;99.90;;;;;;5053899;28;20142;-76
2022/11/17 05:24:06;;;;;;;14.27;9.18;;;9.20;99.90;;;;;;5062881;28;20108;-76
2022/11/17 05:26:34;;;;;;;14.07;9.00;;;9.20;99.90;;;;;;5065632;28;20037;-76
2022/11/17 05:29:01;;;;;;;13.13;8.77;;;9.20;99.90;;;;;;5061316;28;20041;-76
2022/11/17 05:31:28;;;;;;;14.70;8.75;;;9.20;99.90;;;;;;5066331;28;20040;-76
2022/11/17 05:33:54;;;;;;;10.75;8.07;;;9.10;99.90;;;;;;5053739;28;20048;-76
2022/11/17 05:36:21;;;;;;;13.50;8.88;;;9.10;99.90;;;;;;5037846;28;20028;-76
2022/11/17 05:38:47;;;;;;;13.07;9.00;;;9.10;99.90;;;;;;5042664;28;20112;-75
2022/11/17 05:41:14;;;;;;;11.88;8.07;;;9.10;99.90;;;;;;5049528;28;20286;-76
2022/11/17 05:43:40;;;;;;;12.50;8.18;;;9.10;99.90;;;;;;5049919;28;20047;-76
2022/11/17 05:46:06;;;;;;;12.50;8.55;;;9.10;99.90;;;;;;5047313;28;20041;-75
2022/11/17 05:48:34;;;;;;;10.82;7.85;;;9.10;99.90;;;;;;5058461;28;20049;-76
2022/11/17 05:51:01;;;;;;;10.65;7.80;;;9.10;99.90;;;;;;5063805;28;20044;-75
2022/11/17 05:53:28;;;;;;;10.95;7.72;;;9.00;99.90;;;;;;5047930;28;20041;-75
2022/11/17 05:56:06;;;;;;;9.63;7.40;;;9.00;99.90;;;;;;5046131;28;20044;-75
2022/11/17 05:58:35;;;;;;;10.55;7.35;;;9.00;99.90;;;;;;5044633;28;20416;-76
2022/11/17 06:01:01;;;;;;;10.90;7.18;;;9.10;99.90;;;;;;5062807;28;20259;-76
2022/11/17 06:03:50;;;;;;;14.32;8.13;;;9.00;99.90;;;;;;5059147;28;20543;-76
2022/11/17 06:06:15;;;;;;;11.05;7.28;;;9.60;99.90;;;;;;5058031;28;20055;-76
2022/11/17 06:08:41;;;;;;;9.25;7.45;;;8.90;99.90;;;;;;5061037;28;20036;-76
2022/11/17 06:11:07;;;;;;;9.52;7.03;;;8.90;99.90;;;;;;5042943;28;21445;-76
2022/11/17 06:13:33;;;;;;;10.13;7.28;;;8.90;99.90;;;;;;5048342;28;20112;-77
2022/11/17 06:16:01;;;;;;;10.70;7.07;;;8.90;99.90;;;;;;5052865;28;20087;-76
2022/11/17 06:18:35;;;;;;;10.20;6.93;;;8.90;99.90;;;;;;5053279;28;20086;-76
2022/11/17 06:21:01;;;;;;;8.60;6.45;;;8.90;99.90;;;;;;5057780;28;20037;-76
2022/11/17 06:23:30;;;;;;;9.50;6.70;;;8.80;99.90;;;;;;5053136;28;20123;-76
2022/11/17 06:25:57;;;;;;;9.57;7.18;;;8.80;99.90;;;;;;5053371;28;20117;-75
2022/11/17 06:28:23;;;;;;;9.48;7.00;;;8.80;99.90;;;;;;5047888;28;20041;-75
2022/11/17 06:30:49;;;;;;;10.80;7.40;;;9.30;99.90;;;;;;5051140;28;20489;-75
2022/11/17 06:33:16;;;;;;;10.85;7.13;;;8.80;99.90;;;;;;5052193;28;20032;-75
2022/11/17 06:35:44;;;;;;;10.20;7.40;;;8.80;99.90;;;;;;5033330;28;20105;-75
2022/11/17 06:38:10;;;;;;;10.73;7.25;;;8.80;99.90;;;;;;5059185;28;20466;-75
2022/11/17 06:40:35;;;;;;;10.50;6.97;;;8.80;99.90;;;;;;5041576;28;20167;-75
2022/11/17 06:43:10;;;;;;;8.98;6.80;;;8.80;99.90;;;;;;5052794;28;20420;-75
2022/11/17 06:45:47;;;;;;;8.55;6.57;;;8.80;99.90;;;;;;5064929;28;20499;-75
2022/11/17 06:48:15;;;;;;;10.00;6.78;;;8.80;99.90;;;;;;5053148;28;20048;-75
2022/11/17 06:50:41;;;;;;;11.02;6.63;;;8.80;99.90;;;;;;5060342;28;20040;-74
2022/11/17 06:53:08;;;;;;;9.43;7.00;;;8.80;99.90;;;;;;5054671;28;20072;-75
2022/11/17 06:55:34;;;;;;;11.48;7.72;;;8.80;99.90;;;;;;5053286;28;20049;-75
2022/11/17 06:58:02;;;;;;;10.38;7.28;;;8.80;99.90;;;;;;5052665;28;20040;-75
2022/11/17 07:00:29;;;;;;;12.00;8.02;;;9.50;99.90;;;;;;5060554;28;20044;-75
2022/11/17 07:02:59;;;;;;;11.52;7.13;;;8.80;99.90;;;;;;5064814;28;20056;-75
2022/11/17 07:05:26;;;;;;;10.05;7.20;;;8.80;99.90;;;;;;5057385;28;20083;-75
2022/11/17 07:07:55;;;;;;;9.40;7.20;;;8.80;99.90;;;;;;5048642;28;20048;-74
2022/11/17 07:10:20;;;;;;;10.88;6.88;;;8.80;99.90;;;;;;5055878;28;20048;-74
2022/11/17 07:12:46;;;;;;;10.68;7.68;;;9.30;99.90;;;;;;5064290;28;20064;-74
2022/11/17 07:15:11;;;;;;;10.38;7.32;;;8.80;99.90;;;;;;5063052;28;20039;-74
2022/11/17 07:17:37;;;;;;;10.25;7.22;;;8.70;99.90;;;;;;5064508;28;20040;-74
2022/11/17 07:20:03;;;;;;;11.13;7.57;;;8.70;99.90;;;;;;5068417;28;20543;-74
2022/11/17 07:22:28;;;;;;;9.63;7.18;;;8.70;99.90;;;;;;5066931;28;20040;-74
2022/11/17 07:24:54;;;;;;;9.18;7.05;;;8.70;99.90;;;;;;5062185;28;20047;-74
2022/11/17 07:27:20;;;;;;;10.52;6.95;;;8.70;99.90;;;;;;5067888;28;20060;-75
2022/11/17 07:29:45;;;;;;;10.82;7.60;;;8.70;99.90;;;;;;5063039;28;20044;-75
2022/11/17 07:32:12;;;;;;;9.63;6.57;;;8.70;99.90;;;;;;5055010;28;20086;-75
2022/11/17 07:34:38;;;;;;;10.25;7.05;;;8.70;99.90;;;;;;5049541;28;20033;-75
2022/11/17 07:37:04;;;;;;;8.75;6.90;;;8.80;99.90;;;;;;5049664;28;20059;-75
2022/11/17 07:39:30;;;;;;;13.88;7.80;;;8.80;99.90;;;;;;5064515;28;20032;-75
2022/11/17 07:41:55;;;;;;;12.10;7.47;;;8.70;99.90;;;;;;5052215;28;20061;-75
2022/11/17 07:44:21;;;;;;;11.38;8.05;;;8.70;99.90;;;;;;5059937;28;20079;-75
2022/11/17 07:46:46;;;;;;;11.70;7.15;;;8.80;99.90;;;;;;5048126;28;20382;-75
2022/11/17 07:49:12;;;;;;;11.73;7.63;;;8.70;99.90;;;;;;5071849;28;20037;-75
2022/11/17 07:51:37;;;;;;;11.52;7.22;;;8.70;99.90;;;;;;5061231;28;20095;-75
2022/11/17 07:54:03;;;;;;;10.10;7.50;;;8.80;99.90;;;;;;5045730;28;20044;-75
2022/11/17 07:56:28;;;;;;;10.70;8.10;;;8.70;99.90;;;;;;5066913;28;20388;-74
2022/11/17 07:58:54;;;;;;;9.75;7.00;;;8.70;99.90;;;;;;5062292;28;20097;-74
2022/11/17 08:01:20;;;;;;;10.30;6.95;;;8.70;99.90;;;;;;5056976;28;20072;-74
2022/11/17 08:03:46;;;;;;;10.65;7.78;;;8.70;99.90;;;;;;5070010;28;20041;-74
2022/11/17 08:06:11;;;;;;;8.90;7.00;;;8.70;99.90;;;;;;5063083;28;20048;-74
2022/11/17 08:08:38;;;;;;;9.80;6.72;;;8.70;99.90;;;;;;5064839;28;20048;-74
2022/11/17 08:11:05;;;;;;;8.85;6.40;;;8.70;99.90;;;;;;5065525;28;20045;-75
2022/11/17 08:13:31;;;;;;;11.93;6.63;;;8.70;99.90;;;;;;5057101;28;20056;-75
2022/11/17 08:15:58;;;;;;;10.63;7.18;;;8.70;99.90;;;;;;5055079;28;20132;-75
2022/11/17 08:18:24;;;;;;;10.32;7.25;;;8.70;99.90;;;;;;5063973;28;20522;-75
2022/11/17 08:20:50;;;;;;;11.35;6.80;;;8.70;99.90;;;;;;5069887;28;20120;-75
2022/11/17 08:23:16;;;;;;;10.52;7.47;;;8.70;99.90;;;;;;5062335;28;20037;-75
2022/11/17 08:25:42;;;;;;;9.85;7.07;;;8.70;99.90;;;;;;5057112;28;20047;-75
2022/11/17 08:28:07;;;;;;;10.85;7.20;;;8.70;99.90;;;;;;5053526;28;20048;-75
2022/11/17 08:30:34;;;;;;;10.02;6.90;;;8.70;99.90;;;;;;5050718;28;20036;-75
2022/11/17 08:33:00;;;;;;;11.27;7.75;;;8.70;99.90;;;;;;5066844;28;20036;-75
2022/11/17 08:35:26;;;;;;;10.65;7.53;;;8.70;99.90;;;;;;5060289;28;20091;-75
2022/11/17 08:37:52;;;;;;;9.27;6.68;;;8.70;99.90;;;;;;5058609;28;20044;-75
2022/11/17 08:40:19;;;;;;;11.05;7.22;;;8.70;99.90;;;;;;5064183;28;20078;-75
2022/11/17 08:42:45;;;;;;;13.20;8.10;;;8.70;99.90;;;;;;5055567;28;20037;-75
2022/11/17 08:45:11;;;;;;;11.68;7.80;;;8.70;99.90;;;;;;5066271;28;20036;-75
2022/11/17 08:47:37;;;;;;;11.00;7.80;;;8.70;99.90;;;;;;5064470;28;20058;-75
2022/11/17 08:50:05;;;;;;;10.85;7.13;;;8.70;99.90;;;;;;5066227;28;20234;-75
2022/11/17 08:52:30;;;;;;;11.73;7.22;;;8.70;99.90;;;;;;5059504;28;20533;-75
2022/11/17 08:54:56;;;;;;;9.68;7.47;;;8.80;99.90;;;;;;5042865;28;20126;-75
2022/11/17 08:57:22;;;;;;;11.75;7.97;;;8.80;99.90;;;;;;5050483;28;20412;-75
2022/11/17 08:59:48;;;;;;;9.75;7.45;;;8.90;99.90;;;;;;5060652;28;20081;-75
2022/11/17 09:02:14;;;;;;;10.95;7.40;;;8.90;99.90;;;;;;5071251;28;20040;-75
2022/11/17 09:04:39;;;;;;;14.15;8.15;;;8.90;99.90;;;;;;5060560;28;20398;-76
2022/11/17 09:07:05;;;;;;;11.50;7.93;;;8.90;99.90;;;;;;5061359;28;20525;-75
2022/11/17 09:09:32;;;;;;;10.82;7.63;;;8.90;99.90;;;;;;5039936;28;20048;-75
2022/11/17 09:11:58;;;;;;;11.75;7.60;;;8.90;99.90;;;;;;5052695;28;20048;-75
2022/11/17 09:14:24;;;;;;;12.55;7.22;;;8.90;99.90;;;;;;5067226;28;20443;-75
2022/11/17 09:16:50;;;;;;;12.43;8.35;;;9.00;99.90;;;;;;5054660;28;20621;-75
2022/11/17 09:19:16;;;;;;;10.43;7.40;;;9.00;99.90;;;;;;5069668;28;20093;-75
2022/11/17 09:21:42;;;;;;;11.20;7.75;;;8.90;99.90;;;;;;5058195;28;20037;-75
2022/11/17 09:24:08;;;;;;;11.45;7.22;;;9.00;99.90;;;;;;5044720;28;20393;-76
2022/11/17 09:26:34;;;;;;;13.25;8.20;;;9.00;99.90;;;;;;5058298;28;20098;-75
2022/11/17 09:29:02;;;;;;;10.98;7.40;;;8.90;99.90;;;;;;5042591;28;20033;-75
2022/11/17 09:31:27;;;;;;;11.82;6.57;;;8.90;99.90;;;;;;5050805;28;20047;-75
2022/11/17 09:33:53;;;;;;;9.10;6.30;;;8.90;99.90;;;;;;5061032;28;20066;-75
2022/11/17 09:36:19;;;;;;;8.35;6.13;;;8.90;99.90;;;;;;5048086;28;20059;-75
2022/11/17 09:38:45;;;;;;;10.35;6.43;;;9.00;99.90;;;;;;5054944;28;20454;-75
2022/11/17 09:41:14;;;;;;;11.55;6.70;;;9.00;99.90;;;;;;5041932;28;20058;-75
2022/11/17 09:43:45;;;;;;;9.73;5.90;;;9.00;99.90;;;;;;5063964;28;20071;-75
2022/11/17 09:46:35;;;;;;;9.32;6.00;;;9.00;99.90;;;;;;5063094;28;20040;-75
2022/11/17 09:49:11;;;;;;;10.07;6.35;;;9.10;99.90;;;;;;5065446;28;20040;-75
2022/11/17 09:51:44;;;;;;;10.43;6.90;;;9.10;99.90;;;;;;5090915;22;20556;-76
2022/11/17 09:54:34;;;;;;;10.30;6.97;;;9.10;99.90;;;;;;5069384;28;20395;-75
2022/11/17 09:57:00;;;;;;;9.07;6.13;;;9.10;99.90;;;;;;5081657;28;20039;-75
2022/11/17 09:59:27;;;;;;;9.20;6.13;;;9.10;99.90;;;;;;5065902;28;20029;-76
2022/11/17 10:01:53;;;;;;;9.75;5.88;;;9.10;99.90;;;;;;5055082;28;20041;-76
2022/11/17 10:04:19;;;;;;;8.07;5.47;;;9.20;99.90;;;;;;5054494;28;20043;-75
2022/11/17 10:06:47;;;;;;;8.23;5.80;;;9.20;99.90;;;;;;5017222;28;20123;-76
2022/11/17 10:09:23;;;;;;;8.27;6.10;;;9.20;99.90;;;;;;5045311;28;20075;-76
2022/11/17 10:11:49;;;;;;;9.27;5.80;;;9.30;99.90;;;;;;5037898;28;20041;-75
2022/11/17 10:14:17;;;;;;;10.25;5.95;;;9.30;99.90;;;;;;5065772;28;20094;-76
2022/11/17 10:16:54;;;;;;;9.27;6.20;;;9.30;99.90;;;;;;5037619;28;20087;-75
2022/11/17 10:19:28;;;;;;;12.13;6.45;;;9.30;99.90;;;;;;5045038;28;20081;-76
2022/11/17 10:22:32;;;;;;;10.55;5.95;;;9.30;99.90;;;;;;5050653;28;20044;-76
2022/11/17 10:24:57;;;;;;;9.30;6.50;;;9.30;99.90;;;;;;5056376;28;20076;-76
2022/11/17 10:27:33;;;;;;;11.27;6.10;;;9.50;99.90;;;;;;5036508;28;20488;-76
2022/11/17 10:30:12;;;;;;;10.32;5.82;;;9.40;99.90;;;;;;5048967;28;20037;-76
2022/11/17 10:32:47;;;;;;;8.50;5.55;;;9.50;99.90;;;;;;5048489;28;20037;-76
2022/11/17 10:35:19;;;;;;;8.40;5.47;;;10.10;99.90;;;;;;5044419;28;20044;-77
2022/11/17 10:37:57;;;;;;;9.35;5.68;;;9.50;99.90;;;;;;5060840;28;20082;-77
2022/11/17 10:40:26;;;;;;;7.30;4.82;;;9.60;99.90;;;;;;5037344;28;20025;-76
2022/11/17 10:43:16;;;;;;;8.32;5.32;;;9.60;99.90;;;;;;5043686;28;20041;-77
2022/11/17 10:46:01;;;;;;;9.27;5.20;;;9.60;99.90;;;;;;5065694;28;20111;-77
2022/11/17 10:48:33;;;;;;;7.28;4.78;;;9.70;99.90;;;;;;5039468;28;20040;-77
2022/11/17 10:51:02;;;;;;;9.07;4.70;;;9.70;99.90;;;;;;5065684;28;20091;-76
2022/11/17 10:53:37;;;;;;;9.07;4.97;;;9.70;99.90;;;;;;5062980;28;20037;-76
2022/11/17 10:56:23;;;;;;;7.25;5.22;;;9.70;99.90;;;;;;5062708;28;20420;-76
2022/11/17 10:59:08;;;;;;;11.45;4.93;;;9.80;99.90;;;;;;5053189;28;20037;-76
2022/11/17 11:01:39;;;;;;;9.52;4.50;;;10.00;99.90;;;;;;5051685;28;20079;-76
2022/11/17 11:04:24;;;;;;;11.98;4.68;;;9.90;99.90;;;;;;5061355;28;20495;-76
2022/11/17 11:07:12;;;;;;;8.25;4.45;;;9.90;99.90;;;;;;5033556;28;20072;-76
2022/11/17 11:09:52;;;;;;;11.50;4.32;;;9.90;99.90;;;;;;5061770;28;20041;-76
2022/11/17 11:12:23;;;;;;;8.05;4.40;;;9.90;99.90;;;;;;5043112;28;20037;-76
2022/11/17 11:14:57;;;;;;;7.37;4.20;;;9.90;99.90;;;;;;5063176;28;20037;-76
2022/11/17 11:17:28;;;;;;;8.07;3.60;;;10.00;99.90;;;;;;5053385;28;20298;-77
2022/11/17 11:19:54;;;;;;;8.10;3.08;;;10.00;99.90;;;;;;5055294;28;20038;-76
2022/11/17 11:22:41;;;;;;;6.13;2.70;;;10.00;99.90;;;;;;5064444;28;20044;-76
2022/11/17 11:25:42;;;;;;;8.45;3.20;;;10.10;99.90;;;;;;5050811;28;20132;-76
2022/11/17 11:28:07;;;;;;;8.30;3.17;;;10.10;99.90;;;;;;5009668;28;20048;-76
2022/11/17 11:30:44;;;;;;;7.40;3.28;;;10.10;99.90;;;;;;5050059;28;20037;-76
2022/11/17 11:33:28;;;;;;;6.97;2.97;;;10.10;99.90;;;;;;5049626;28;20071;-76
2022/11/17 11:36:13;;;;;;;7.28;3.30;;;10.10;99.90;;;;;;5066830;28;20036;-76
2022/11/17 11:39:10;;;;;;;7.80;2.72;;;10.10;99.90;;;;;;5068497;28;20043;-76
2022/11/17 11:41:56;;;;;;;7.60;2.75;;;10.20;99.90;;;;;;5059503;28;20058;-76
2022/11/17 11:44:46;;;;;;;6.47;2.85;;;10.20;99.90;;;;;;5051521;28;20072;-76
2022/11/17 11:47:28;;;;;;;4.90;2.83;;;10.20;99.90;;;;;;5052019;28;20439;-76
2022/11/17 11:50:12;;;;;;;5.45;2.38;;;10.20;99.90;;;;;;5040655;28;20038;-76
2022/11/17 11:52:42;;;;;;;4.68;2.30;;;10.20;99.90;;;;;;5055179;28;20072;-76
2022/11/17 11:55:24;;;;;;;5.97;2.30;;;10.20;99.90;;;;;;5034642;28;20190;-76
2022/11/17 11:57:57;;;;;;;4.57;1.77;;;10.30;99.90;;;;;;5038879;28;20377;-76
2022/11/17 12:00:23;;;;;;;4.20;1.90;;;10.30;99.90;;;;;;5059424;28;20043;-76
2022/11/17 12:03:20;;;;;;;6.72;1.80;;;10.30;99.90;;;;;;5053004;28;20033;-77
2022/11/17 12:09:04;;;;;;;3.17;1.40;;;10.30;99.90;;;;;;5055187;28;20052;-77
2022/11/17 12:14:17;;;;;;;3.45;1.33;;;10.30;99.90;;;;;;5056725;28;20051;-77
2022/11/17 12:16:45;;;;;;;3.22;1.35;;;10.30;99.90;;;;;;5029226;28;20049;-77
2022/11/17 12:19:49;;;;;;;3.95;1.80;;;10.30;99.90;;;;;;5052811;28;20050;-77
2022/11/17 12:22:33;;;;;;;6.47;1.90;;;10.30;99.90;;;;;;5029732;28;20508;-76
2022/11/17 12:25:16;;;;;;;3.15;1.40;;;10.30;99.90;;;;;;5052702;28;20041;-76
2022/11/17 12:27:48;;;;;;;4.07;1.50;;;10.30;99.90;;;;;;5056327;28;20051;-77
2022/11/17 12:30:32;;;;;;;8.70;1.90;;;10.30;99.90;;;;;;5027126;28;20068;-76
2022/11/17 12:33:46;;;;;;;4.05;1.70;;;10.30;99.90;;;;;;5052246;28;20052;-77
2022/11/17 12:36:31;;;;;;;5.65;1.67;;;10.30;99.90;;;;;;5041695;28;20110;-77
2022/11/17 12:39:35;;;;;;;6.60;1.60;;;10.40;99.90;;;;;;5064741;28;20036;-77
2022/11/17 12:42:05;;;;;;;5.65;1.92;;;10.40;99.90;;;;;;5034763;28;20044;-77
2022/11/17 12:44:37;;;;;;;6.95;2.70;;;10.60;99.90;;;;;;5056605;28;20048;-76
2022/11/17 12:47:15;;;;;;;6.73;3.47;;;10.40;99.90;;;;;;5036219;28;20045;-76
2022/11/17 12:49:53;;;;;;;6.10;3.10;;;10.40;99.90;;;;;;5061093;28;20282;-77
2022/11/17 12:52:49;;;;;;;8.15;3.25;;;10.40;99.90;;;;;;5035560;28;20029;-76
2022/11/17 12:55:51;;;;;;;6.00;2.20;;;10.40;99.90;;;;;;5053057;28;20041;-77
2022/11/17 12:58:23;;;;;;;;;;;10.40;99.90;;;;;;5027664;28;20037;-77
2022/11/17 13:01:07;;;;;;;5.90;2.05;;;10.40;99.90;;;;;;5050426;28;19917;-77
2022/11/17 13:03:53;;;;;;;5.63;1.92;;;10.40;99.90;;;;;;5062038;28;20036;-76
2022/11/17 13:06:19;;;;;;;4.93;1.75;;;10.40;99.90;;;;;;5051140;28;20045;-76
2022/11/17 13:09:04;;;;;;;6.00;1.90;;;10.40;99.90;;;;;;5032022;28;20033;-76
2022/11/17 13:11:30;;;;;;;7.95;2.10;;;10.40;99.90;;;;;;5046811;28;20042;-76
2022/11/17 13:14:14;;;;;;;4.47;1.98;;;10.40;99.90;;;;;;5062075;28;20060;-76
2022/11/17 13:16:45;;;;;;;7.15;2.20;;;10.40;99.90;;;;;;5054725;28;20072;-76
2022/11/17 13:19:40;;;;;;;4.25;2.00;;;10.40;99.90;;;;;;5049566;28;20037;-76
2022/11/17 13:22:15;;;;;;;4.00;1.90;;;10.40;99.90;;;;;;5058808;28;20040;-76
2022/11/17 13:24:46;;;;;;;9.18;2.20;;;10.50;99.90;;;;;;5051104;28;20493;-76
2022/11/17 13:27:27;;;;;;;7.05;1.80;;;10.40;99.90;;;;;;5061733;28;20435;-76
2022/11/17 13:30:13;;;;;;;5.15;2.58;;;10.40;99.90;;;;;;5043253;28;20117;-76
2022/11/17 13:32:40;;;;;;;6.10;1.90;;;10.40;99.90;;;;;;5061683;28;20036;-77
2022/11/17 13:35:23;;;;;;;5.30;1.80;;;10.40;99.90;;;;;;5052354;28;20535;-76
2022/11/17 13:38:12;;;;;;;7.45;1.88;;;10.50;99.90;;;;;;5051146;28;20044;-76
2022/11/17 13:40:40;;;;;;;6.13;2.10;;;10.50;99.90;;;;;;5050189;28;20052;-76
2022/11/17 13:43:10;;;;;;;5.28;1.65;;;10.50;99.90;;;;;;5061047;28;20044;-77
2022/11/17 13:45:36;;;;;;;3.53;1.73;;;10.50;99.90;;;;;;5049138;28;20507;-76
2022/11/17 13:48:02;;;;;;;6.25;1.70;;;10.60;99.90;;;;;;5051306;28;20040;-77